createdAt,value
2023-04-18T00:02:26.118Z,16.17
2023-04-18T00:06:30.030Z,15.37
2023-04-18T00:10:31.732Z,16.87
2023-04-18T00:14:35.298Z,19.60
2023-04-18T00:18:37.599Z,17.83
2023-04-18T00:22:43.015Z,21.27
2023-04-18T00:26:44.776Z,17.90
2023-04-18T00:30:47.138Z,18.73
2023-04-18T00:34:51.053Z,18.67
2023-04-18T00:38:52.929Z,20.23
2023-04-18T00:42:54.712Z,20.03
2023-04-18T00:46:56.422Z,22.37
2023-04-18T00:51:00.223Z,20.17
2023-04-18T00:55:03.809Z,18.97
2023-04-18T00:59:09.232Z,22.97
2023-04-18T01:03:11.284Z,20.33
2023-04-18T01:07:14.420Z,23.33
2023-04-18T01:11:16.118Z,22.77
2023-04-18T01:15:17.932Z,23.93
2023-04-18T01:19:22.049Z,25.83
2023-04-18T01:23:23.694Z,25.80
2023-04-18T01:27:25.405Z,25.93
2023-04-18T01:31:27.169Z,25.67
2023-04-18T01:35:29.048Z,27.97
2023-04-18T01:39:31.065Z,25.47
2023-04-18T01:43:32.782Z,25.93
2023-04-18T01:47:34.551Z,28.80
2023-04-18T01:51:36.610Z,29.43
2023-04-18T01:55:38.351Z,26.60
2023-04-18T01:59:40.069Z,27.53
2023-04-18T02:03:54.608Z,30.40
2023-04-18T02:08:03.386Z,28.00
2023-04-18T02:12:11.405Z,30.67
2023-04-18T02:16:20.449Z,29.23
2023-04-18T02:20:28.430Z,29.43
2023-04-18T02:24:36.411Z,28.93
2023-04-18T02:28:39.264Z,28.17
2023-04-18T02:32:41.195Z,31.57
2023-04-18T02:36:43.463Z,30.00
2023-04-18T02:40:45.753Z,29.30
2023-04-18T02:44:47.468Z,28.20
2023-04-18T02:48:51.902Z,29.00
2023-04-18T02:52:53.679Z,30.53
2023-04-18T02:56:55.383Z,31.13
2023-04-18T03:00:57.210Z,28.43
2023-04-18T03:04:59.096Z,29.47
2023-04-18T03:09:01.384Z,28.07
2023-04-18T03:13:03.167Z,28.43
2023-04-18T03:17:05.027Z,27.23
2023-04-18T03:21:07.241Z,24.37
2023-04-18T03:25:09.247Z,24.03
2023-04-18T03:29:11.005Z,26.13
2023-04-18T03:33:14.447Z,25.07
2023-04-18T03:37:16.189Z,25.33
2023-04-18T03:41:18.065Z,27.07
2023-04-18T03:45:22.333Z,29.57
2023-04-18T03:49:24.103Z,28.33
2023-04-18T03:53:25.763Z,27.53
2023-04-18T03:57:27.489Z,29.53
2023-04-18T04:01:29.316Z,28.13
2023-04-18T04:05:31.131Z,29.87
2023-04-18T04:09:32.931Z,34.63
2023-04-18T04:13:36.054Z,30.53
2023-04-18T04:17:37.739Z,32.23
2023-04-18T04:21:39.455Z,29.53
2023-04-18T04:25:43.526Z,31.03
2023-04-18T04:29:45.342Z,31.80
2023-04-18T04:33:47.184Z,32.00
2023-04-18T04:37:48.951Z,31.73
2023-04-18T04:41:53.454Z,30.73
2023-04-18T04:45:55.374Z,29.80
2023-04-18T04:49:58.340Z,30.90
2023-04-18T04:54:00.039Z,30.60
2023-04-18T04:58:01.836Z,31.63
2023-04-18T05:02:03.939Z,30.43
2023-04-18T05:06:06.225Z,34.10
2023-04-18T05:10:08.257Z,31.67
2023-04-18T05:14:10.335Z,32.63
2023-04-18T05:18:13.958Z,28.73
2023-04-18T05:22:15.754Z,30.87
2023-04-18T05:26:18.733Z,29.23
2023-04-18T05:30:20.623Z,27.73
2023-04-18T05:34:33.436Z,29.03
2023-04-18T05:38:35.166Z,28.60
2023-04-18T05:42:36.932Z,27.63
2023-04-18T05:46:38.891Z,27.57
2023-04-18T05:50:40.879Z,24.83
2023-04-18T05:54:42.541Z,23.90
2023-04-18T05:58:46.733Z,20.80
2023-04-18T06:02:49.707Z,21.23
2023-04-18T06:06:51.455Z,20.37
2023-04-18T06:10:53.248Z,18.27
2023-04-18T06:14:54.971Z,20.27
2023-04-18T06:19:00.830Z,21.93
2023-04-18T06:23:03.050Z,23.70
2023-04-18T06:27:05.469Z,23.60
2023-04-18T06:31:08.495Z,27.27
2023-04-18T06:35:10.455Z,27.10
2023-04-18T06:39:12.735Z,26.07
2023-04-18T06:43:14.625Z,27.17
2023-04-18T06:47:16.410Z,25.23
2023-04-18T06:52:27.578Z,28.03
2023-04-18T06:56:29.884Z,24.33
2023-04-18T07:00:36.474Z,27.13
2023-04-18T07:04:38.350Z,26.63
2023-04-18T07:08:40.120Z,25.83
2023-04-18T07:12:41.772Z,25.20
2023-04-18T07:16:45.814Z,27.60
2023-04-18T07:20:47.663Z,27.27
2023-04-18T07:24:49.408Z,25.07
2023-04-18T07:28:51.173Z,25.23
2023-04-18T07:32:53.143Z,24.93
2023-04-18T07:36:54.962Z,29.40
2023-04-18T07:40:57.901Z,28.00
2023-04-18T07:44:59.701Z,27.17
2023-04-18T07:49:02.547Z,26.53
2023-04-18T07:53:05.080Z,26.87
2023-04-18T07:57:06.792Z,23.13
2023-04-18T08:01:13.420Z,25.30
2023-04-18T08:05:15.228Z,27.77
2023-04-18T08:09:17.230Z,24.87
2023-04-18T08:13:19.141Z,23.97
2023-04-18T08:17:22.210Z,24.33
2023-04-18T08:21:23.989Z,25.57
2023-04-18T08:25:25.849Z,22.50
2023-04-18T08:29:27.602Z,22.43
2023-04-18T08:33:29.676Z,20.37
2023-04-18T08:37:35.234Z,21.53
2023-04-18T08:41:40.065Z,22.67
2023-04-18T08:45:45.809Z,21.47
2023-04-18T08:49:47.831Z,21.33
2023-04-18T08:53:50.672Z,21.87
2023-04-18T08:57:54.856Z,20.27
2023-04-18T09:01:57.283Z,19.63
2023-04-18T09:06:12.610Z,21.50
2023-04-18T09:10:15.708Z,22.67
2023-04-18T09:14:27.346Z,21.10
2023-04-18T09:18:30.938Z,18.97
2023-04-18T09:22:50.355Z,21.87
2023-04-18T09:26:54.113Z,22.30
2023-04-18T09:30:57.509Z,24.10
2023-04-18T09:35:03.903Z,24.47
2023-04-18T09:39:06.502Z,23.77
2023-04-18T09:43:20.547Z,22.53
2023-04-18T09:47:22.313Z,24.57
2023-04-18T09:51:27.046Z,27.87
2023-04-18T09:55:29.895Z,24.97
2023-04-18T09:59:43.465Z,26.03
2023-04-18T10:03:49.250Z,25.77
2023-04-18T10:07:51.302Z,26.97
2023-04-18T10:11:53.038Z,24.47
2023-04-18T10:15:57.922Z,28.03
2023-04-18T10:20:15.458Z,26.43
2023-04-18T10:24:55.289Z,22.73
2023-04-18T10:28:57.954Z,23.50
2023-04-18T10:32:59.903Z,24.63
2023-04-18T10:37:05.551Z,25.30
2023-04-18T10:41:20.095Z,28.57
2023-04-18T10:45:26.210Z,23.93
2023-04-18T10:49:31.965Z,25.43
2023-04-18T10:53:34.878Z,26.07
2023-04-18T10:57:38.946Z,25.77
2023-04-18T11:01:40.705Z,26.47
2023-04-18T11:05:42.544Z,30.40
2023-04-18T11:09:54.876Z,26.40
2023-04-18T11:13:59.709Z,27.80
2023-04-18T11:18:02.721Z,28.40
2023-04-18T11:22:04.554Z,30.33
2023-04-18T11:26:07.538Z,27.80
2023-04-18T11:30:09.539Z,29.30
2023-04-18T11:34:14.010Z,30.47
2023-04-18T11:38:16.195Z,27.27
2023-04-18T11:42:18.023Z,26.10
2023-04-18T11:46:19.816Z,27.33
2023-04-18T11:50:24.734Z,28.17
2023-04-18T11:54:36.973Z,26.83
2023-04-18T11:58:39.884Z,27.27
2023-04-18T12:02:43.432Z,25.70
2023-04-18T12:06:53.450Z,24.80
2023-04-18T12:10:58.376Z,25.20
2023-04-18T12:15:05.159Z,26.50
2023-04-18T12:19:11.245Z,25.57
2023-04-18T12:23:32.203Z,24.87
2023-04-18T12:27:59.148Z,24.90
2023-04-18T12:32:03.241Z,26.57
2023-04-18T12:36:06.337Z,27.53
2023-04-18T12:40:08.888Z,27.77
2023-04-18T12:44:10.810Z,26.93
2023-04-18T12:48:12.711Z,24.33
2023-04-18T12:52:16.221Z,23.30
2023-04-18T12:56:18.232Z,25.50
2023-04-18T13:00:20.262Z,23.50
2023-04-18T13:04:22.689Z,23.93
2023-04-18T13:08:24.721Z,24.00
2023-04-18T13:12:26.521Z,25.20
2023-04-18T13:16:32.740Z,24.67
2023-04-18T13:20:37.552Z,24.50
2023-04-18T13:24:39.512Z,24.03
2023-04-18T13:28:41.252Z,25.60
2023-04-18T13:32:47.120Z,22.80
2023-04-18T13:37:01.786Z,22.53
2023-04-18T13:41:12.103Z,21.23
2023-04-18T13:45:14.911Z,23.43
2023-04-18T13:49:16.592Z,21.17
2023-04-18T13:53:18.360Z,21.17
2023-04-18T13:57:20.417Z,22.77
2023-04-18T14:01:24.224Z,25.10
2023-04-18T14:05:26.404Z,21.77
2023-04-18T14:09:28.430Z,21.63
2023-04-18T14:13:30.380Z,20.70
2023-04-18T14:17:33.582Z,20.10
2023-04-18T14:21:35.996Z,19.43
2023-04-18T14:25:38.130Z,21.30
2023-04-18T14:29:39.890Z,20.80
2023-04-18T14:33:41.893Z,18.50
2023-04-18T14:37:44.015Z,19.47
2023-04-18T14:41:46.129Z,17.00
2023-04-18T14:45:47.904Z,17.90
2023-04-18T14:49:51.692Z,19.87
2023-04-18T14:53:53.557Z,17.57
2023-04-18T14:57:55.305Z,17.27
2023-04-18T15:01:58.538Z,17.23
2023-04-18T15:06:00.509Z,17.90
2023-04-18T15:10:02.532Z,18.90
2023-04-18T15:14:04.373Z,16.50
2023-04-18T15:18:14.765Z,20.00
2023-04-18T15:22:16.600Z,17.43
2023-04-18T15:26:27.629Z,16.20
2023-04-18T15:30:29.454Z,17.43
2023-04-18T15:34:31.439Z,20.33
2023-04-18T15:38:35.225Z,18.33
2023-04-18T15:42:37.318Z,20.47
2023-04-18T15:46:42.492Z,22.20
2023-04-18T15:50:52.507Z,18.93
2023-04-18T15:55:04.141Z,19.37
2023-04-18T15:59:06.844Z,21.40
2023-04-18T16:03:11.236Z,20.47
2023-04-18T16:07:23.884Z,20.33
2023-04-18T16:11:41.693Z,23.53
2023-04-18T16:15:43.979Z,22.13
2023-04-18T16:19:46.298Z,21.13
2023-04-18T16:23:53.380Z,25.13
2023-04-18T16:27:58.250Z,21.60
2023-04-18T16:32:14.930Z,21.63
2023-04-18T16:36:20.739Z,24.80
2023-04-18T16:40:24.678Z,20.40
2023-04-18T16:44:26.470Z,24.03
2023-04-18T16:48:29.220Z,20.13
2023-04-18T16:52:34.200Z,19.57
2023-04-18T16:56:37.743Z,22.57
2023-04-18T17:00:41.636Z,18.90
2023-04-18T17:04:43.840Z,21.23
2023-04-18T17:08:58.773Z,21.63
2023-04-18T17:13:02.570Z,22.03
2023-04-18T17:17:07.185Z,23.57
2023-04-18T17:21:12.420Z,20.47
2023-04-18T17:25:21.264Z,21.27
2023-04-18T17:29:26.587Z,20.00
2023-04-18T17:33:36.680Z,20.20
2023-04-18T17:37:38.919Z,20.43
2023-04-18T17:41:44.121Z,23.03
2023-04-18T17:45:45.900Z,20.33
2023-04-18T17:49:50.173Z,21.20
2023-04-18T17:54:01.375Z,19.07
2023-04-18T17:58:03.433Z,20.73
2023-04-18T18:02:05.849Z,20.83
2023-04-18T18:06:10.987Z,18.63
2023-04-18T18:10:13.504Z,25.23
2023-04-18T18:14:16.022Z,21.50
2023-04-18T18:18:18.403Z,21.77
2023-04-18T18:22:24.856Z,19.67
2023-04-18T18:26:26.899Z,19.27
2023-04-18T18:30:34.067Z,20.07
2023-04-18T18:34:39.085Z,21.57
2023-04-18T18:38:46.733Z,19.57
2023-04-18T18:43:03.182Z,21.63
2023-04-18T18:47:23.972Z,19.70
2023-04-18T18:51:27.401Z,20.27
2023-04-18T18:55:29.904Z,19.13
2023-04-18T18:59:31.652Z,19.97
2023-04-18T19:04:11.174Z,21.87
2023-04-18T19:08:13.912Z,19.93
2023-04-18T19:12:16.195Z,20.63
2023-04-18T19:16:21.154Z,21.60
2023-04-18T19:20:27.506Z,19.10
2023-04-18T19:24:35.672Z,18.77
2023-04-18T19:28:37.662Z,18.77
2023-04-18T19:32:39.614Z,20.10
2023-04-18T19:36:41.375Z,21.80
2023-04-18T19:40:43.267Z,20.30
2023-04-18T19:44:47.162Z,19.13
2023-04-18T19:48:48.980Z,19.20
2023-04-18T19:53:00.751Z,19.00
2023-04-18T19:57:04.735Z,17.73
2023-04-18T20:01:07.719Z,19.30
2023-04-18T20:05:13.635Z,17.47
2023-04-18T20:09:17.603Z,19.37
2023-04-18T20:13:19.349Z,16.87
2023-04-18T20:17:21.302Z,16.63
2023-04-18T20:21:27.809Z,18.53
2023-04-18T20:25:31.449Z,17.17
2023-04-18T20:29:36.488Z,19.93
2023-04-18T20:33:38.422Z,19.40
2023-04-18T20:37:43.456Z,16.43
2023-04-18T20:41:48.810Z,19.23
2023-04-18T20:46:09.202Z,18.90
2023-04-18T20:50:20.207Z,18.73
2023-04-18T20:54:26.969Z,21.07
2023-04-18T20:58:29.653Z,19.40
2023-04-18T21:02:31.663Z,20.67
2023-04-18T21:06:33.544Z,17.87
2023-04-18T21:10:36.616Z,20.23
2023-04-18T21:14:39.779Z,19.47
2023-04-18T21:18:41.606Z,18.63
2023-04-18T21:22:43.262Z,18.00
2023-04-18T21:26:44.994Z,18.63
2023-04-18T21:30:46.969Z,17.93
2023-04-18T21:34:48.687Z,16.97
2023-04-18T21:38:57.435Z,17.93
2023-04-18T21:42:59.230Z,18.93
2023-04-18T21:47:00.954Z,18.70
2023-04-18T21:51:02.623Z,16.93
2023-04-18T21:55:05.104Z,19.37
2023-04-18T21:59:06.829Z,17.13
2023-04-18T22:03:08.896Z,16.40
2023-04-18T22:07:12.059Z,18.13
2023-04-18T22:11:13.919Z,17.97
2023-04-18T22:15:15.668Z,17.53
2023-04-18T22:19:17.527Z,18.73
2023-04-18T22:23:19.218Z,17.20
2023-04-18T22:27:20.911Z,19.43
2023-04-18T22:31:22.772Z,16.87
2023-04-18T22:35:24.870Z,18.53
2023-04-18T22:39:26.622Z,16.00
2023-04-18T22:43:28.318Z,17.93
2023-04-18T22:47:30.104Z,21.13
2023-04-18T22:51:31.922Z,16.57
2023-04-18T22:55:34.237Z,15.63
2023-04-18T22:59:36.230Z,16.70
2023-04-18T23:03:38.313Z,18.00
2023-04-18T23:07:40.510Z,16.73
2023-04-18T23:11:42.302Z,18.60
2023-04-18T23:15:44.079Z,18.17
2023-04-18T23:19:45.828Z,14.50
2023-04-18T23:23:47.532Z,16.53
2023-04-18T23:27:49.188Z,16.50
2023-04-18T23:31:51.506Z,12.70
2023-04-18T23:35:53.338Z,13.60
2023-04-18T23:39:55.014Z,14.97
2023-04-18T23:43:56.700Z,11.97
2023-04-18T23:47:58.401Z,12.27
2023-04-18T23:52:00.250Z,10.70
2023-04-18T23:56:01.965Z,9.80
